Terminal Aerodrome Forecast
Issued by NWS St Louis, MO

Home | Current Version | Previous Version | Text Only | Print | Product List | Glossary On
Versions: 1 2 3 4 5 6 7 8 9 10 11 12 13 14 15 16 17 18 19 20
000
FTUS43 KLSX 180700 AAB
TAFCOU
TAF AMD
KCOU 180748Z 1808/1906 VRB03KT 1SM BR BKN050
      TEMPO 1808/1811 1/2SM FG BKN008
     FM181100 VRB03KT 2SM BR BKN050
     FM181400 19006KT P6SM SCT030 SCT250=

USA.gov is the U.S. government's official web portal to all federal, state and local government web resources and services.